PRIVATE WETTERSTATION BILLIGHEIM-ALLFELD                       ZURCK
Wetterdaten: Mittwoch, 24.12.2014
Datum Zeit Temp. A. Temp. A. min Temp. A. max Feuchte A. Luftdruck Regen Wind Richtung Richtung Sonnenschein ET Solar Taupunkt Windchill Windben Empfang
24.12.2014 00:00 1,4 C 1,4 C 1,4 C 92 % 1021,9 hPa 0,0 l/m 3,2 km/h (1 Bft) S 180 0 min 0,000 mm 0 W/m 0,2 C 1,4 C 11,3 km/h (2 Bft) 97 %
24.12.2014 00:10 1,3 C 1,3 C 1,4 C 91 % 1021,9 hPa 0,0 l/m 1,6 km/h (1 Bft) S-SO 157 0 min 0,000 mm 0 W/m -0,0 C 1,3 C 8,0 km/h (2 Bft) 79 %
24.12.2014 00:20 1,2 C 1,2 C 1,3 C 92 % 1021,9 hPa 0,0 l/m 1,6 km/h (1 Bft) S-SO 157 0 min 0,000 mm 0 W/m 0,0 C 1,2 C 8,0 km/h (2 Bft) 98 %
24.12.2014 00:30 1,0 C 1,0 C 1,2 C 91 % 1021,8 hPa 0,0 l/m 1,6 km/h (1 Bft) S-SO 157 0 min 0,000 mm 0 W/m -0,3 C 1,0 C 8,0 km/h (2 Bft) 97 %
24.12.2014 00:40 0,8 C 0,8 C 1,1 C 92 % 1021,8 hPa 0,0 l/m 3,2 km/h (1 Bft) S 180 0 min 0,000 mm 0 W/m -0,3 C 0,8 C 8,0 km/h (2 Bft) 98 %
24.12.2014 00:50 0,8 C 0,8 C 0,8 C 92 % 1021,8 hPa 0,0 l/m 4,8 km/h (1 Bft) S-SW 202 0 min 0,000 mm 0 W/m -0,3 C 0,8 C 11,3 km/h (2 Bft) 97 %
24.12.2014 01:00 0,8 C 0,8 C 0,8 C 92 % 1021,7 hPa 0,0 l/m 8,0 km/h (2 Bft) S-SW 202 0 min 0,000 mm 0 W/m -0,3 C -0,8 C 16,1 km/h (3 Bft) 98 %
24.12.2014 01:10 0,8 C 0,8 C 0,8 C 92 % 1021,9 hPa 0,0 l/m 6,4 km/h (2 Bft) S-SW 202 0 min 0,000 mm 0 W/m -0,3 C 0,8 C 16,1 km/h (3 Bft) 97 %
24.12.2014 01:20 0,7 C 0,7 C 0,8 C 92 % 1021,7 hPa 0,0 l/m 8,0 km/h (2 Bft) S-SW 202 0 min 0,000 mm 0 W/m -0,4 C -0,9 C 16,1 km/h (3 Bft) 98 %
24.12.2014 01:30 0,7 C 0,7 C 0,7 C 91 % 1021,7 hPa 0,0 l/m 8,0 km/h (2 Bft) S-SW 202 0 min 0,000 mm 0 W/m -0,6 C -0,9 C 14,5 km/h (3 Bft) 97 %
24.12.2014 01:40 0,6 C 0,6 C 0,7 C 92 % 1021,5 hPa 0,0 l/m 4,8 km/h (1 Bft) S-SW 202 0 min 0,000 mm 0 W/m -0,5 C 0,6 C 11,3 km/h (2 Bft) 88 %
24.12.2014 01:50 0,6 C 0,6 C 0,6 C 92 % 1021,6 hPa 0,0 l/m 4,8 km/h (1 Bft) S-SW 202 0 min 0,000 mm 0 W/m -0,5 C 0,6 C 11,3 km/h (2 Bft) 98 %
24.12.2014 02:00 0,4 C 0,4 C 0,6 C 92 % 1021,3 hPa 0,0 l/m 6,4 km/h (2 Bft) S-SW 202 0 min 0,000 mm 0 W/m -0,7 C 0,4 C 14,5 km/h (3 Bft) 97 %
24.12.2014 02:10 0,4 C 0,4 C 0,4 C 92 % 1021,3 hPa 0,0 l/m 6,4 km/h (2 Bft) S-SW 202 0 min 0,000 mm 0 W/m -0,7 C 0,4 C 12,9 km/h (3 Bft) 98 %
24.12.2014 02:20 0,4 C 0,3 C 0,4 C 92 % 1021,4 hPa 0,0 l/m 6,4 km/h (2 Bft) S-SW 202 0 min 0,000 mm 0 W/m -0,7 C 0,4 C 12,9 km/h (3 Bft) 96 %
24.12.2014 02:30 0,4 C 0,3 C 0,4 C 92 % 1021,3 hPa 0,0 l/m 8,0 km/h (2 Bft) S-SW 202 0 min 0,000 mm 0 W/m -0,7 C -1,2 C 16,1 km/h (3 Bft) 97 %
24.12.2014 02:40 0,4 C 0,4 C 0,4 C 92 % 1021,3 hPa 0,0 l/m 8,0 km/h (2 Bft) S-SW 202 0 min 0,000 mm 0 W/m -0,7 C -1,2 C 17,7 km/h (3 Bft) 97 %
24.12.2014 02:50 0,4 C 0,4 C 0,4 C 92 % 1021,4 hPa 0,0 l/m 9,7 km/h (2 Bft) SW 225 0 min 0,000 mm 0 W/m -0,7 C -2,8 C 16,1 km/h (3 Bft) 98 %
24.12.2014 03:00 0,4 C 0,4 C 0,4 C 92 % 1021,4 hPa 0,0 l/m 8,0 km/h (2 Bft) SW 225 0 min 0,000 mm 0 W/m -0,7 C -1,2 C 17,7 km/h (3 Bft) 98 %
24.12.2014 03:10 0,6 C 0,4 C 0,6 C 92 % 1021,4 hPa 0,0 l/m 8,0 km/h (2 Bft) W-SW 247 0 min 0,000 mm 0 W/m -0,5 C -1,0 C 29,0 km/h (5 Bft) 97 %
24.12.2014 03:20 1,2 C 0,6 C 1,2 C 92 % 1021,3 hPa 0,0 l/m 17,7 km/h (3 Bft) W-SW 247 0 min 0,000 mm 0 W/m 0,0 C -7,0 C 38,6 km/h (5 Bft) 98 %
24.12.2014 03:30 1,4 C 1,2 C 1,4 C 92 % 1021,4 hPa 0,0 l/m 17,7 km/h (3 Bft) W-SW 247 0 min 0,000 mm 0 W/m 0,2 C -6,7 C 32,2 km/h (5 Bft) 97 %
24.12.2014 03:40 1,6 C 1,4 C 1,6 C 91 % 1021,6 hPa 0,0 l/m 16,1 km/h (3 Bft) W-SW 247 0 min 0,000 mm 0 W/m 0,3 C -5,7 C 33,8 km/h (5 Bft) 97 %
24.12.2014 03:50 1,7 C 1,6 C 1,7 C 91 % 1021,6 hPa 0,0 l/m 16,1 km/h (3 Bft) W-SW 247 0 min 0,000 mm 0 W/m 0,4 C -5,5 C 40,2 km/h (6 Bft) 97 %
24.12.2014 04:00 1,7 C 1,6 C 1,7 C 91 % 1021,8 hPa 0,0 l/m 17,7 km/h (3 Bft) W-SW 247 0 min 0,000 mm 0 W/m 0,4 C -6,4 C 37,0 km/h (5 Bft) 97 %
24.12.2014 04:10 1,8 C 1,7 C 1,8 C 90 % 1021,9 hPa 0,0 l/m 22,5 km/h (4 Bft) W-SW 247 0 min 0,000 mm 0 W/m 0,3 C -8,3 C 54,7 km/h (7 Bft) 98 %
24.12.2014 04:20 1,8 C 1,8 C 1,8 C 90 % 1021,6 hPa 0,0 l/m 20,9 km/h (4 Bft) W-SW 247 0 min 0,000 mm 0 W/m 0,3 C -7,7 C 41,8 km/h (6 Bft) 96 %
24.12.2014 04:30 1,8 C 1,8 C 1,8 C 90 % 1021,9 hPa 0,0 l/m 17,7 km/h (3 Bft) SW 225 0 min 0,000 mm 0 W/m 0,3 C -6,2 C 43,5 km/h (6 Bft) 88 %
24.12.2014 04:40 1,8 C 1,7 C 1,8 C 90 % 1021,9 hPa 0,0 l/m 19,3 km/h (3 Bft) W-SW 247 0 min 0,000 mm 0 W/m 0,3 C -7,0 C 37,0 km/h (5 Bft) 97 %
24.12.2014 04:50 1,8 C 1,8 C 1,8 C 91 % 1021,9 hPa 0,0 l/m 16,1 km/h (3 Bft) SW 225 0 min 0,000 mm 0 W/m 0,5 C -5,4 C 33,8 km/h (5 Bft) 97 %
24.12.2014 05:00 1,8 C 1,8 C 1,8 C 91 % 1021,9 hPa 0,0 l/m 14,5 km/h (3 Bft) SW 225 0 min 0,025 mm 0 W/m 0,5 C -4,5 C 29,0 km/h (5 Bft) 97 %
24.12.2014 05:10 2,1 C 1,8 C 2,1 C 91 % 1022,0 hPa 0,0 l/m 16,1 km/h (3 Bft) SW 225 0 min 0,000 mm 0 W/m 0,8 C -5,0 C 35,4 km/h (5 Bft) 97 %
24.12.2014 05:20 2,3 C 2,1 C 2,3 C 91 % 1021,9 hPa 0,0 l/m 14,5 km/h (3 Bft) W 270 0 min 0,000 mm 0 W/m 1,0 C -3,9 C 38,6 km/h (5 Bft) 98 %
24.12.2014 05:30 2,6 C 2,3 C 2,6 C 91 % 1022,0 hPa 0,0 l/m 16,1 km/h (3 Bft) W-SW 247 0 min 0,000 mm 0 W/m 1,3 C -4,4 C 35,4 km/h (5 Bft) 97 %
24.12.2014 05:40 2,7 C 2,6 C 2,7 C 91 % 1022,0 hPa 0,0 l/m 14,5 km/h (3 Bft) W-SW 247 0 min 0,000 mm 0 W/m 1,4 C -3,4 C 35,4 km/h (5 Bft) 97 %
24.12.2014 05:50 2,8 C 2,7 C 2,8 C 91 % 1022,1 hPa 0,0 l/m 16,1 km/h (3 Bft) W-SW 247 0 min 0,000 mm 0 W/m 1,5 C -4,2 C 37,0 km/h (5 Bft) 97 %
24.12.2014 06:00 2,9 C 2,8 C 2,9 C 92 % 1022,1 hPa 0,0 l/m 11,3 km/h (2 Bft) SW 225 0 min 0,000 mm 0 W/m 1,7 C -1,2 C 27,4 km/h (4 Bft) 97 %
24.12.2014 06:10 3,0 C 2,9 C 3,0 C 92 % 1022,0 hPa 0,0 l/m 14,5 km/h (3 Bft) SW 225 0 min 0,000 mm 0 W/m 1,8 C -3,1 C 30,6 km/h (5 Bft) 98 %
24.12.2014 06:20 3,1 C 3,0 C 3,1 C 91 % 1022,1 hPa 0,0 l/m 12,9 km/h (3 Bft) SW 225 0 min 0,000 mm 0 W/m 1,8 C -2,0 C 30,6 km/h (5 Bft) 98 %
24.12.2014 06:30 3,2 C 3,1 C 3,2 C 92 % 1022,0 hPa 0,0 l/m 16,1 km/h (3 Bft) SW 225 0 min 0,000 mm 0 W/m 2,0 C -3,7 C 30,6 km/h (5 Bft) 98 %
24.12.2014 06:40 3,3 C 3,2 C 3,4 C 91 % 1022,0 hPa 0,0 l/m 11,3 km/h (2 Bft) SW 225 0 min 0,000 mm 0 W/m 2,0 C -0,7 C 27,4 km/h (4 Bft) 97 %
24.12.2014 06:50 3,5 C 3,3 C 3,5 C 91 % 1022,0 hPa 0,0 l/m 14,5 km/h (3 Bft) SW 225 0 min 0,000 mm 0 W/m 2,2 C -2,5 C 29,0 km/h (5 Bft) 97 %
24.12.2014 07:00 3,6 C 3,5 C 3,6 C 90 % 1021,8 hPa 0,0 l/m 11,3 km/h (2 Bft) SW 225 0 min 0,000 mm 0 W/m 2,1 C -0,4 C 24,1 km/h (4 Bft) 97 %
24.12.2014 07:10 3,7 C 3,6 C 3,7 C 90 % 1021,7 hPa 0,0 l/m 14,5 km/h (3 Bft) SW 225 0 min 0,000 mm 0 W/m 2,2 C -2,2 C 25,7 km/h (4 Bft) 98 %
24.12.2014 07:20 3,8 C 3,7 C 3,8 C 89 % 1021,7 hPa 0,0 l/m 12,9 km/h (3 Bft) SW 225 0 min 0,000 mm 0 W/m 2,2 C -1,2 C 22,5 km/h (4 Bft) 97 %
24.12.2014 07:30 3,9 C 3,8 C 3,9 C 89 % 1021,7 hPa 0,0 l/m 12,9 km/h (3 Bft) SW 225 0 min 0,000 mm 0 W/m 2,3 C -1,1 C 24,1 km/h (4 Bft) 97 %
24.12.2014 07:40 4,1 C 3,9 C 4,1 C 88 % 1021,7 hPa 0,0 l/m 11,3 km/h (2 Bft) SW 225 0 min 0,000 mm 0 W/m 2,3 C 0,2 C 22,5 km/h (4 Bft) 98 %
24.12.2014 07:50 4,2 C 4,1 C 4,2 C 88 % 1021,6 hPa 0,0 l/m 9,7 km/h (2 Bft) SW 225 0 min 0,000 mm 0 W/m 2,4 C 1,4 C 22,5 km/h (4 Bft) 97 %
24.12.2014 08:00 4,3 C 4,2 C 4,3 C 87 % 1021,6 hPa 0,0 l/m 12,9 km/h (3 Bft) SW 225 0 min 0,025 mm 0 W/m 2,3 C -0,6 C 24,1 km/h (4 Bft) 98 %
24.12.2014 08:10 4,3 C 4,2 C 4,3 C 87 % 1021,8 hPa 0,0 l/m 6,4 km/h (2 Bft) W-SW 247 0 min 0,000 mm 0 W/m 2,3 C 4,3 C 19,3 km/h (3 Bft) 98 %
24.12.2014 08:20 4,4 C 4,3 C 4,4 C 87 % 1021,8 hPa 0,0 l/m 8,0 km/h (2 Bft) SW 225 0 min 0,000 mm 0 W/m 2,4 C 3,0 C 22,5 km/h (4 Bft) 97 %
24.12.2014 08:30 4,4 C 4,4 C 4,4 C 87 % 1021,8 hPa 0,0 l/m 6,4 km/h (2 Bft) W-SW 247 0 min 0,000 mm 0 W/m 2,4 C 4,4 C 19,3 km/h (3 Bft) 97 %
24.12.2014 08:40 4,5 C 4,4 C 4,5 C 87 % 1022,0 hPa 0,0 l/m 6,4 km/h (2 Bft) SW 225 0 min 0,000 mm 0 W/m 2,5 C 4,5 C 17,7 km/h (3 Bft) 98 %
24.12.2014 08:50 4,6 C 4,5 C 4,6 C 86 % 1022,0 hPa 0,0 l/m 8,0 km/h (2 Bft) SW 225 0 min 0,000 mm 7 W/m 2,5 C 3,2 C 20,9 km/h (4 Bft) 97 %
24.12.2014 09:00 4,7 C 4,6 C 4,7 C 86 % 1022,0 hPa 0,0 l/m 4,8 km/h (1 Bft) SW 225 0 min 0,000 mm 7 W/m 2,6 C 4,7 C 19,3 km/h (3 Bft) 98 %
24.12.2014 09:10 4,8 C 4,7 C 4,8 C 86 % 1021,8 hPa 0,0 l/m 4,8 km/h (1 Bft) S-SW 202 0 min 0,000 mm 14 W/m 2,7 C 4,8 C 11,3 km/h (2 Bft) 97 %
24.12.2014 09:20 4,8 C 4,7 C 4,8 C 87 % 1021,9 hPa 0,0 l/m 3,2 km/h (1 Bft) S-SW 202 0 min 0,000 mm 14 W/m 2,8 C 4,8 C 9,7 km/h (2 Bft) 98 %
24.12.2014 09:30 4,7 C 4,7 C 4,8 C 87 % 1021,9 hPa 0,0 l/m 4,8 km/h (1 Bft) S-SW 202 0 min 0,000 mm 12 W/m 2,7 C 4,7 C 9,7 km/h (2 Bft) 97 %
24.12.2014 09:40 4,6 C 4,6 C 4,7 C 88 % 1021,9 hPa 0,0 l/m 3,2 km/h (1 Bft) S 180 0 min 0,000 mm 12 W/m 2,8 C 4,6 C 9,7 km/h (2 Bft) 97 %
24.12.2014 09:50 4,6 C 4,5 C 4,6 C 88 % 1022,0 hPa 0,0 l/m 8,0 km/h (2 Bft) S-SW 202 0 min 0,000 mm 14 W/m 2,8 C 3,2 C 19,3 km/h (3 Bft) 98 %
24.12.2014 10:00 4,7 C 4,5 C 4,7 C 88 % 1022,0 hPa 0,0 l/m 9,7 km/h (2 Bft) S-SW 202 0 min 0,025 mm 30 W/m 2,9 C 2,0 C 19,3 km/h (3 Bft) 98 %
24.12.2014 10:10 5,1 C 4,7 C 5,1 C 87 % 1022,2 hPa 0,0 l/m 14,5 km/h (3 Bft) SW 225 0 min 0,000 mm 44 W/m 3,1 C -0,5 C 27,4 km/h (4 Bft) 88 %
24.12.2014 10:20 5,6 C 5,1 C 5,6 C 84 % 1022,3 hPa 0,0 l/m 19,3 km/h (3 Bft) SW 225 0 min 0,000 mm 42 W/m 3,1 C -2,1 C 32,2 km/h (5 Bft) 99 %
24.12.2014 10:30 6,0 C 5,6 C 6,0 C 83 % 1022,2 hPa 0,0 l/m 19,3 km/h (3 Bft) SW 225 0 min 0,000 mm 46 W/m 3,3 C -1,6 C 37,0 km/h (5 Bft) 99 %
24.12.2014 10:40 6,2 C 6,0 C 6,2 C 83 % 1022,2 hPa 0,0 l/m 17,7 km/h (3 Bft) SW 225 0 min 0,000 mm 60 W/m 3,5 C -0,7 C 35,4 km/h (5 Bft) 99 %
24.12.2014 10:50 6,3 C 6,2 C 6,3 C 82 % 1022,1 hPa 0,0 l/m 20,9 km/h (4 Bft) SW 225 0 min 0,000 mm 58 W/m 3,5 C -1,8 C 33,8 km/h (5 Bft) 99 %
24.12.2014 11:00 6,4 C 6,3 C 6,4 C 82 % 1022,2 hPa 0,0 l/m 17,7 km/h (3 Bft) W-SW 247 0 min 0,051 mm 72 W/m 3,6 C -0,4 C 40,2 km/h (6 Bft) 100 %
24.12.2014 11:10 6,5 C 6,4 C 6,5 C 81 % 1022,0 hPa 0,0 l/m 20,9 km/h (4 Bft) W-SW 247 0 min 0,000 mm 79 W/m 3,5 C -1,6 C 41,8 km/h (6 Bft) 100 %
24.12.2014 11:20 6,6 C 6,5 C 6,6 C 81 % 1021,9 hPa 0,0 l/m 17,7 km/h (3 Bft) SW 225 0 min 0,000 mm 76 W/m 3,6 C -0,2 C 32,2 km/h (5 Bft) 100 %
24.12.2014 11:30 6,6 C 6,6 C 6,6 C 81 % 1022,1 hPa 0,0 l/m 17,7 km/h (3 Bft) SW 225 0 min 0,000 mm 70 W/m 3,6 C -0,2 C 32,2 km/h (5 Bft) 100 %
24.12.2014 11:40 6,6 C 6,6 C 6,6 C 81 % 1022,1 hPa 0,0 l/m 19,3 km/h (3 Bft) SW 225 0 min 0,000 mm 72 W/m 3,6 C -0,8 C 40,2 km/h (6 Bft) 100 %
24.12.2014 11:50 6,7 C 6,6 C 6,7 C 80 % 1021,7 hPa 0,0 l/m 19,3 km/h (3 Bft) SW 225 0 min 0,000 mm 79 W/m 3,5 C -0,7 C 33,8 km/h (5 Bft) 100 %
24.12.2014 12:00 6,8 C 6,7 C 6,8 C 81 % 1021,5 hPa 0,0 l/m 19,3 km/h (3 Bft) SW 225 0 min 0,076 mm 102 W/m 3,8 C -0,6 C 33,8 km/h (5 Bft) 100 %
24.12.2014 12:10 6,9 C 6,8 C 6,9 C 80 % 1021,4 hPa 0,0 l/m 19,3 km/h (3 Bft) SW 225 0 min 0,000 mm 107 W/m 3,7 C -0,5 C 35,4 km/h (5 Bft) 100 %
24.12.2014 12:20 7,1 C 6,9 C 7,1 C 80 % 1021,4 hPa 0,0 l/m 17,7 km/h (3 Bft) SW 225 0 min 0,000 mm 109 W/m 3,9 C 0,4 C 32,2 km/h (5 Bft) 100 %
24.12.2014 12:30 7,1 C 7,1 C 7,1 C 80 % 1021,3 hPa 0,0 l/m 12,9 km/h (3 Bft) SW 225 0 min 0,000 mm 102 W/m 3,9 C 2,7 C 25,7 km/h (4 Bft) 91 %
24.12.2014 12:40 7,1 C 7,1 C 7,1 C 81 % 1021,3 hPa 0,0 l/m 11,3 km/h (2 Bft) SW 225 0 min 0,000 mm 56 W/m 4,1 C 3,6 C 24,1 km/h (4 Bft) 99 %
24.12.2014 12:50 7,2 C 7,1 C 7,2 C 80 % 1021,2 hPa 0,0 l/m 20,6 km/h (4 Bft) SW 227 0 min 0,001 mm 46 W/m 4,0 C -0,5 C 40,2 km/h (6 Bft) 98 %
24.12.2014 13:00 7,3 C 7,2 C 7,3 C 80 % 1021,1 hPa 0,0 l/m 19,9 km/h (4 Bft) W-SW 257 0 min 0,051 mm 58 W/m 4,1 C -0,2 C 37,0 km/h (5 Bft) 97 %
24.12.2014 13:10 7,4 C 7,3 C 7,4 C 80 % 1020,9 hPa 0,0 l/m 19,9 km/h (4 Bft) SW 228 0 min 0,000 mm 74 W/m 4,2 C -0,0 C 35,4 km/h (5 Bft) 97 %
24.12.2014 13:20 7,5 C 7,4 C 7,5 C 80 % 1020,9 hPa 0,0 l/m 17,9 km/h (3 Bft) W-SW 250 0 min 0,000 mm 69 W/m 4,3 C 0,9 C 45,1 km/h (6 Bft) 97 %
24.12.2014 13:30 7,5 C 7,5 C 7,5 C 79 % 1020,8 hPa 0,0 l/m 24,7 km/h (4 Bft) W 262 0 min 0,000 mm 46 W/m 4,1 C -1,5 C 46,7 km/h (6 Bft) 97 %
24.12.2014 13:40 7,4 C 7,4 C 7,5 C 80 % 1020,8 hPa 0,0 l/m 14,3 km/h (3 Bft) W-SW 246 0 min 0,000 mm 44 W/m 4,2 C 2,3 C 30,6 km/h (5 Bft) 98 %
24.12.2014 13:50 7,4 C 7,3 C 7,4 C 80 % 1020,8 hPa 0,0 l/m 16,7 km/h (3 Bft) W-SW 247 0 min 0,000 mm 40 W/m 4,2 C 1,2 C 43,5 km/h (6 Bft) 96 %
24.12.2014 14:00 7,3 C 7,3 C 7,4 C 80 % 1020,8 hPa 0,0 l/m 17,9 km/h (3 Bft) W 265 0 min 0,000 mm 49 W/m 4,1 C 0,6 C 37,0 km/h (5 Bft) 98 %
24.12.2014 14:10 7,3 C 7,3 C 7,3 C 80 % 1020,7 hPa 0,0 l/m 19,3 km/h (3 Bft) W-SW 241 0 min 0,051 mm 79 W/m 4,1 C 0,1 C 35,4 km/h (5 Bft) 97 %
24.12.2014 14:20 7,4 C 7,3 C 7,4 C 80 % 1020,7 hPa 0,0 l/m 18,2 km/h (3 Bft) S-SW 205 0 min 0,000 mm 60 W/m 4,2 C 0,6 C 38,6 km/h (5 Bft) 97 %
24.12.2014 14:30 7,5 C 7,4 C 7,5 C 80 % 1020,6 hPa 0,0 l/m 16,0 km/h (3 Bft) SW 228 0 min 0,000 mm 40 W/m 4,3 C 1,7 C 35,4 km/h (5 Bft) 97 %
24.12.2014 14:40 7,5 C 7,5 C 7,6 C 80 % 1020,6 hPa 0,0 l/m 16,5 km/h (3 Bft) W 278 0 min 0,000 mm 37 W/m 4,3 C 1,4 C 29,0 km/h (5 Bft) 97 %
24.12.2014 14:50 7,5 C 7,5 C 7,6 C 81 % 1020,6 hPa 0,0 l/m 12,1 km/h (2 Bft) W 278 0 min 0,000 mm 35 W/m 4,5 C 3,6 C 25,7 km/h (4 Bft) 96 %
24.12.2014 15:00 7,5 C 7,5 C 7,5 C 81 % 1020,7 hPa 0,0 l/m 12,9 km/h (3 Bft) W-SW 242 0 min 0,051 mm 26 W/m 4,5 C 3,1 C 24,1 km/h (4 Bft) 97 %
24.12.2014 15:10 7,5 C 7,4 C 7,5 C 82 % 1020,6 hPa 0,0 l/m 14,6 km/h (3 Bft) W 270 0 min 0,000 mm 21 W/m 4,6 C 2,3 C 25,7 km/h (4 Bft) 97 %
24.12.2014 15:20 7,5 C 7,5 C 7,5 C 82 % 1020,6 hPa 0,0 l/m 19,5 km/h (3 Bft) W-SW 240 0 min 0,000 mm 19 W/m 4,6 C 0,2 C 45,1 km/h (6 Bft) 97 %
24.12.2014 15:30 7,6 C 7,5 C 7,6 C 82 % 1020,6 hPa 0,0 l/m 19,6 km/h (3 Bft) S 191 0 min 0,000 mm 23 W/m 4,7 C 0,3 C 37,0 km/h (5 Bft) 97 %
24.12.2014 15:40 7,6 C 7,6 C 7,6 C 81 % 1020,6 hPa 0,0 l/m 18,3 km/h (3 Bft) SW 219 0 min 0,000 mm 9 W/m 4,6 C 0,8 C 37,0 km/h (5 Bft) 97 %
24.12.2014 15:50 7,6 C 7,6 C 7,6 C 82 % 1020,6 hPa 0,0 l/m 11,6 km/h (2 Bft) S-SW 205 0 min 0,000 mm 7 W/m 4,7 C 4,0 C 27,4 km/h (4 Bft) 97 %
24.12.2014 16:00 7,6 C 7,6 C 7,6 C 82 % 1020,5 hPa 0,0 l/m 15,5 km/h (3 Bft) SW 224 0 min 0,025 mm 5 W/m 4,7 C 2,0 C 30,6 km/h (5 Bft) 98 %
24.12.2014 16:10 7,6 C 7,5 C 7,6 C 81 % 1020,5 hPa 0,0 l/m 18,5 km/h (3 Bft) SW 222 0 min 0,000 mm 5 W/m 4,6 C 0,7 C 35,4 km/h (5 Bft) 96 %
24.12.2014 16:20 7,6 C 7,6 C 7,6 C 81 % 1020,4 hPa 0,0 l/m 19,3 km/h (3 Bft) SW 219 0 min 0,000 mm 0 W/m 4,6 C 0,4 C 33,8 km/h (5 Bft) 98 %
24.12.2014 16:30 7,6 C 7,5 C 7,6 C 82 % 1020,4 hPa 0,0 l/m 14,6 km/h (3 Bft) SW 221 0 min 0,000 mm 0 W/m 4,7 C 2,4 C 41,8 km/h (6 Bft) 97 %
24.12.2014 16:40 7,5 C 7,5 C 7,6 C 82 % 1020,3 hPa 0,0 l/m 13,5 km/h (3 Bft) W-SW 239 0 min 0,000 mm 0 W/m 4,6 C 2,8 C 30,6 km/h (5 Bft) 98 %
24.12.2014 16:50 7,5 C 7,5 C 7,5 C 82 % 1020,4 hPa 0,0 l/m 14,2 km/h (3 Bft) W-SW 254 0 min 0,000 mm 0 W/m 4,6 C 2,5 C 32,2 km/h (5 Bft) 97 %
24.12.2014 17:00 7,5 C 7,5 C 7,6 C 82 % 1020,5 hPa 0,0 l/m 12,7 km/h (3 Bft) W 279 0 min 0,025 mm 0 W/m 4,6 C 3,3 C 29,0 km/h (5 Bft) 97 %
24.12.2014 17:10 7,6 C 7,5 C 7,6 C 82 % 1020,6 hPa 0,0 l/m 14,1 km/h (3 Bft) W 278 0 min 0,000 mm 0 W/m 4,7 C 2,7 C 32,2 km/h (5 Bft) 98 %
24.12.2014 17:20 7,6 C 7,6 C 7,6 C 82 % 1020,6 hPa 0,0 l/m 10,5 km/h (2 Bft) W-SW 257 0 min 0,000 mm 0 W/m 4,7 C 4,6 C 24,1 km/h (4 Bft) 97 %
24.12.2014 17:30 7,6 C 7,5 C 7,6 C 81 % 1020,6 hPa 0,0 l/m 12,1 km/h (2 Bft) W 262 0 min 0,000 mm 0 W/m 4,6 C 3,7 C 29,0 km/h (5 Bft) 89 %
24.12.2014 17:40 7,6 C 7,6 C 7,6 C 81 % 1020,6 hPa 0,0 l/m 14,6 km/h (3 Bft) W-SW 244 0 min 0,000 mm 0 W/m 4,6 C 2,4 C 33,8 km/h (5 Bft) 97 %
24.12.2014 17:50 7,6 C 7,6 C 7,6 C 80 % 1020,6 hPa 0,0 l/m 15,8 km/h (3 Bft) SW 219 0 min 0,000 mm 0 W/m 4,4 C 1,9 C 30,6 km/h (5 Bft) 98 %
24.12.2014 18:00 7,6 C 7,6 C 7,6 C 80 % 1020,5 hPa 0,0 l/m 15,3 km/h (3 Bft) W-SW 251 0 min 0,026 mm 0 W/m 4,4 C 2,1 C 37,0 km/h (5 Bft) 97 %
24.12.2014 18:10 7,6 C 7,6 C 7,6 C 80 % 1020,5 hPa 0,0 l/m 15,0 km/h (3 Bft) SW 215 0 min 0,000 mm 0 W/m 4,4 C 2,2 C 32,2 km/h (5 Bft) 98 %
24.12.2014 18:20 7,7 C 7,6 C 7,7 C 81 % 1020,4 hPa 0,0 l/m 22,4 km/h (4 Bft) SW 234 0 min 0,000 mm 0 W/m 4,7 C -0,5 C 38,6 km/h (5 Bft) 98 %
24.12.2014 18:30 7,8 C 7,7 C 7,8 C 81 % 1020,4 hPa 0,0 l/m 23,7 km/h (4 Bft) W 272 0 min 0,000 mm 0 W/m 4,7 C -0,8 C 46,7 km/h (6 Bft) 97 %
24.12.2014 18:40 7,8 C 7,8 C 7,8 C 81 % 1020,4 hPa 0,0 l/m 16,1 km/h (3 Bft) S-SW 208 0 min 0,000 mm 0 W/m 4,7 C 2,0 C 35,4 km/h (5 Bft) 97 %
24.12.2014 18:50 7,9 C 7,8 C 7,9 C 81 % 1020,5 hPa 0,0 l/m 19,0 km/h (3 Bft) W 267 0 min 0,000 mm 0 W/m 4,8 C 0,9 C 40,2 km/h (6 Bft) 97 %
24.12.2014 19:00 7,9 C 7,9 C 8,0 C 81 % 1020,6 hPa 0,0 l/m 19,7 km/h (3 Bft) W-SW 254 0 min 0,025 mm 0 W/m 4,8 C 0,7 C 40,2 km/h (6 Bft) 98 %
24.12.2014 19:10 8,0 C 7,9 C 8,0 C 81 % 1020,3 hPa 0,0 l/m 16,9 km/h (3 Bft) W-SW 248 0 min 0,000 mm 0 W/m 4,9 C 1,9 C 37,0 km/h (5 Bft) 97 %
24.12.2014 19:20 8,0 C 7,9 C 8,0 C 80 % 1020,5 hPa 0,0 l/m 21,0 km/h (4 Bft) SW 226 0 min 0,000 mm 0 W/m 4,8 C 0,4 C 43,5 km/h (6 Bft) 97 %
24.12.2014 19:30 8,1 C 8,0 C 8,1 C 80 % 1020,4 hPa 0,0 l/m 20,1 km/h (4 Bft) W 275 0 min 0,000 mm 0 W/m 4,9 C 0,8 C 37,0 km/h (5 Bft) 98 %
24.12.2014 19:40 8,1 C 8,1 C 8,1 C 81 % 1020,4 hPa 0,0 l/m 20,0 km/h (4 Bft) SW 225 0 min 0,000 mm 0 W/m 5,0 C 0,8 C 35,4 km/h (5 Bft) 97 %
24.12.2014 19:50 8,1 C 8,1 C 8,1 C 81 % 1020,3 hPa 0,0 l/m 18,0 km/h (3 Bft) SW 234 0 min 0,000 mm 0 W/m 5,0 C 1,6 C 32,2 km/h (5 Bft) 98 %
24.12.2014 20:00 8,1 C 8,1 C 8,1 C 80 % 1020,3 hPa 0,0 l/m 18,5 km/h (3 Bft) W-SW 252 0 min 0,051 mm 0 W/m 4,9 C 1,4 C 38,6 km/h (5 Bft) 97 %
24.12.2014 20:10 8,2 C 8,1 C 8,2 C 81 % 1020,4 hPa 0,0 l/m 18,2 km/h (3 Bft) W-SW 253 0 min 0,000 mm 0 W/m 5,1 C 1,6 C 35,4 km/h (5 Bft) 97 %
24.12.2014 20:20 8,1 C 8,1 C 8,2 C 82 % 1020,5 hPa 0,0 l/m 17,8 km/h (3 Bft) S-SW 202 0 min 0,000 mm 0 W/m 5,2 C 1,6 C 38,6 km/h (5 Bft) 97 %
24.12.2014 20:30 8,0 C 8,0 C 8,1 C 84 % 1020,5 hPa 0,0 l/m 17,9 km/h (3 Bft) S-SW 213 0 min 0,000 mm 0 W/m 5,5 C 1,5 C 38,6 km/h (5 Bft) 97 %
24.12.2014 20:40 7,8 C 7,8 C 8,0 C 85 % 1020,6 hPa 0,0 l/m 19,5 km/h (3 Bft) S-SW 198 0 min 0,000 mm 0 W/m 5,4 C 0,6 C 40,2 km/h (6 Bft) 98 %
24.12.2014 20:50 7,8 C 7,8 C 7,8 C 84 % 1020,6 hPa 0,0 l/m 19,5 km/h (3 Bft) S-SW 213 0 min 0,000 mm 0 W/m 5,3 C 0,6 C 45,1 km/h (6 Bft) 98 %
24.12.2014 21:00 7,9 C 7,8 C 7,9 C 84 % 1020,5 hPa 0,0 l/m 20,4 km/h (4 Bft) SW 234 0 min 0,025 mm 0 W/m 5,4 C 0,4 C 48,3 km/h (6 Bft) 99 %
24.12.2014 21:10 7,9 C 7,9 C 7,9 C 84 % 1020,6 hPa 0,0 l/m 16,1 km/h (3 Bft) SW 225 0 min 0,000 mm 0 W/m 5,4 C 2,1 C 33,8 km/h (5 Bft) 100 %
24.12.2014 21:20 7,9 C 7,9 C 7,9 C 84 % 1020,5 hPa 0,0 l/m 16,1 km/h (3 Bft) W-SW 247 0 min 0,000 mm 0 W/m 5,4 C 2,1 C 32,2 km/h (5 Bft) 100 %
24.12.2014 21:30 7,9 C 7,9 C 7,9 C 85 % 1020,6 hPa 0,0 l/m 14,5 km/h (3 Bft) SW 225 0 min 0,000 mm 0 W/m 5,5 C 2,8 C 37,0 km/h (5 Bft) 100 %
24.12.2014 21:40 7,8 C 7,8 C 7,9 C 87 % 1020,7 hPa 0,0 l/m 12,9 km/h (3 Bft) W-SW 247 0 min 0,000 mm 0 W/m 5,8 C 3,5 C 35,4 km/h (5 Bft) 100 %
24.12.2014 21:50 7,6 C 7,6 C 7,8 C 88 % 1020,6 hPa 0,2 l/m 12,9 km/h (3 Bft) SW 225 0 min 0,000 mm 0 W/m 5,7 C 3,3 C 24,1 km/h (4 Bft) 100 %
24.12.2014 22:00 7,4 C 7,4 C 7,6 C 89 % 1020,6 hPa 0,0 l/m 12,9 km/h (3 Bft) SW 225 0 min 0,025 mm 0 W/m 5,7 C 3,0 C 25,7 km/h (4 Bft) 100 %
24.12.2014 22:10 7,3 C 7,3 C 7,4 C 90 % 1020,6 hPa 0,0 l/m 12,9 km/h (3 Bft) SW 225 0 min 0,000 mm 0 W/m 5,8 C 2,9 C 33,8 km/h (5 Bft) 100 %
24.12.2014 22:20 7,1 C 7,1 C 7,3 C 91 % 1020,5 hPa 0,2 l/m 12,9 km/h (3 Bft) SW 225 0 min 0,000 mm 0 W/m 5,7 C 2,7 C 25,7 km/h (4 Bft) 100 %
24.12.2014 22:30 7,1 C 7,1 C 7,1 C 91 % 1020,7 hPa 0,2 l/m 16,1 km/h (3 Bft) SW 225 0 min 0,000 mm 0 W/m 5,7 C 1,1 C 30,6 km/h (5 Bft) 100 %
24.12.2014 22:40 6,9 C 6,9 C 7,1 C 91 % 1020,8 hPa 0,0 l/m 12,9 km/h (3 Bft) SW 225 0 min 0,000 mm 0 W/m 5,5 C 2,4 C 25,7 km/h (4 Bft) 100 %
24.12.2014 22:50 6,9 C 6,9 C 6,9 C 92 % 1020,8 hPa 0,0 l/m 12,9 km/h (3 Bft) SW 225 0 min 0,000 mm 0 W/m 5,7 C 2,4 C 27,4 km/h (4 Bft) 100 %
24.12.2014 23:00 6,9 C 6,9 C 6,9 C 92 % 1020,7 hPa 0,0 l/m 16,1 km/h (3 Bft) SW 225 0 min 0,025 mm 0 W/m 5,7 C 0,9 C 29,0 km/h (5 Bft) 89 %
24.12.2014 23:10 6,9 C 6,9 C 6,9 C 92 % 1020,7 hPa 0,0 l/m 14,5 km/h (3 Bft) SW 225 0 min 0,000 mm 0 W/m 5,7 C 1,6 C 33,8 km/h (5 Bft) 100 %
24.12.2014 23:20 6,9 C 6,9 C 6,9 C 92 % 1020,9 hPa 0,0 l/m 17,7 km/h (3 Bft) SW 225 0 min 0,000 mm 0 W/m 5,7 C 0,2 C 37,0 km/h (5 Bft) 100 %
24.12.2014 23:30 6,9 C 6,9 C 6,9 C 92 % 1020,8 hPa 0,0 l/m 16,1 km/h (3 Bft) SW 225 0 min 0,000 mm 0 W/m 5,7 C 0,9 C 33,8 km/h (5 Bft) 100 %
24.12.2014 23:40 6,9 C 6,9 C 6,9 C 92 % 1020,8 hPa 0,0 l/m 16,1 km/h (3 Bft) SW 225 0 min 0,000 mm 0 W/m 5,7 C 0,9 C 32,2 km/h (5 Bft) 100 %
24.12.2014 23:50 6,9 C 6,9 C 6,9 C 92 % 1020,8 hPa 0,0 l/m 14,5 km/h (3 Bft) SW 225 0 min 0,000 mm 0 W/m 5,7 C 1,6 C 33,8 km/h (5 Bft) 100 %
_ Min-Zeit 02:20 02:20 02:10 13:30 16:40 - 00:10 - - - - - 02:00 04:10 00:10 00:10
Minimum _ 0,3 C 0,3 C 0,4 C 79 % 1020,3 hPa - 1,6 km/h (1 Bft) - - - - - -0,7 C -8,3 C 8,0 km/h (2 Bft) 79 %
_ Max-Zeit 20:10 19:40 20:10 00:00 10:20 21:50 13:30 - - 00:00 12:00 12:20 21:40 09:10 04:10 11:00
Maximum _ 8,2 C 8,1 C 8,2 C 92 % 1022,3 hPa 0,2 l/m 24,7 km/h
W (4 Bft)
- - 0 min 0,076 mm 109 W/m 5,8 C 4,8 C 54,7 km/h
W-SW (7 Bft)
100 %
Durchschnitt _ 5,3 C 5,2 C 5,3 C 86 % 1021,2 hPa #0,6 l/m 14,1 km/h (3 Bft) SW - #0 min. #0,583 mm 46 W/m 3,1 C 0,3 C 29,8 km/h (5 Bft) 97 %
PRIVATE WETTERSTATION BILLIGHEIM-ALLFELD - www.neckar-odenwald-wetter.de - Holger Sonntag